UAL2391 KDEN-KSFO
Flight info
| Callsign | UAL2391 |
|---|---|
| Flight time | 2h 12m |
| Altitude | 40000 |
| Route | COORZ7 VOAXA Q136 OAL INYOE DYAMD5 |
| Aircraft | B772/H-SDE2E3FGHIJ5LORVWXY/LB1D1 |
Departure
| Time | 2026-05-04 16:39 |
|---|---|
| Airport | Denver International Airport (KDEN) |
Arrival
| Time | 2026-05-04 18:51 |
|---|---|
| Airport | San Francisco International Airport (KSFO) |
| Time | Latitude | Longitude | Altitude | Speed | Heading |
|---|---|---|---|---|---|
| 2026-05-04 16:11 | 39.85807 | -104.67546 | 5370 ft | 0 kts | 0° |
| 2026-05-04 16:26 | 39.85743 | -104.67525 | 5366 ft | 4 kts | 295° |
| 2026-05-04 16:27 | 39.85737 | -104.67488 | 5366 ft | 0 kts | 271° |
| 2026-05-04 16:30 | 39.85736 | -104.67689 | 5367 ft | 10 kts | 269° |
| 2026-05-04 16:31 | 39.85738 | -104.67865 | 5368 ft | 10 kts | 271° |
| 2026-05-04 16:31 | 39.85739 | -104.68130 | 5370 ft | 10 kts | 269° |
| 2026-05-04 16:32 | 39.85596 | -104.68263 | 5367 ft | 10 kts | 272° |
| 2026-05-04 16:33 | 39.85545 | -104.68398 | 5366 ft | 10 kts | 185° |
| 2026-05-04 16:33 | 39.85407 | -104.68396 | 5367 ft | 10 kts | 181° |
| 2026-05-04 16:34 | 39.85257 | -104.68402 | 5368 ft | 14 kts | 180° |
| 2026-05-04 16:34 | 39.85178 | -104.68432 | 5367 ft | 8 kts | 243° |
| 2026-05-04 16:35 | 39.85200 | -104.68817 | 5367 ft | 19 kts | 269° |
| 2026-05-04 16:35 | 39.85199 | -104.69331 | 5367 ft | 19 kts | 272° |
| 2026-05-04 16:36 | 39.85201 | -104.69451 | 5366 ft | 9 kts | 271° |
| 2026-05-04 16:36 | 39.85203 | -104.69624 | 5367 ft | 8 kts | 271° |
| 2026-05-04 16:37 | 39.85251 | -104.69655 | 5368 ft | 0 kts | 360° |
| 2026-05-04 16:37 | 39.85304 | -104.69656 | 5368 ft | 29 kts | 359° |
| 2026-05-04 16:38 | 39.86572 | -104.69644 | 5367 ft | 149 kts | 0° |
| 2026-05-04 16:39 | 39.90278 | -104.69654 | 6876 ft | 179 kts | 345° |
| 2026-05-04 16:39 | 39.91968 | -104.71974 | 7071 ft | 203 kts | 271° |
| 2026-05-04 16:40 | 39.90768 | -104.75380 | 7751 ft | 216 kts | 238° |
| 2026-05-04 16:40 | 39.88963 | -104.79134 | 7647 ft | 272 kts | 241° |
| 2026-05-04 16:41 | 39.87090 | -104.83432 | 7380 ft | 271 kts | 243° |
| 2026-05-04 16:41 | 39.84370 | -104.89925 | 7492 ft | 271 kts | 244° |
| 2026-05-04 16:42 | 39.84019 | -104.97062 | 8719 ft | 276 kts | 284° |
| 2026-05-04 16:43 | 39.84468 | -105.01992 | 10237 ft | 274 kts | 272° |
| 2026-05-04 16:43 | 39.84590 | -105.07028 | 11451 ft | 286 kts | 274° |
| 2026-05-04 16:43 | 39.84687 | -105.09653 | 12013 ft | 294 kts | 274° |
| 2026-05-04 16:44 | 39.85000 | -105.20517 | 14770 ft | 307 kts | 273° |
| 2026-05-04 16:45 | 39.85126 | -105.26112 | 16138 ft | 311 kts | 272° |
| 2026-05-04 16:46 | 39.85319 | -105.34665 | 18088 ft | 319 kts | 272° |
| 2026-05-04 16:46 | 39.85446 | -105.40496 | 19208 ft | 325 kts | 272° |
| 2026-05-04 16:47 | 39.85571 | -105.46364 | 20383 ft | 328 kts | 271° |
| 2026-05-04 16:47 | 39.85686 | -105.52591 | 20809 ft | 360 kts | 271° |
| 2026-05-04 16:48 | 39.85872 | -105.62640 | 22470 ft | 375 kts | 271° |
| 2026-05-04 16:48 | 39.85943 | -105.66041 | 23180 ft | 377 kts | 271° |
| 2026-05-04 16:49 | 39.86050 | -105.72857 | 24370 ft | 381 kts | 268° |
| 2026-05-04 16:49 | 39.85539 | -105.79840 | 25291 ft | 393 kts | 263° |
| 2026-05-04 16:50 | 39.84822 | -105.86914 | 26628 ft | 394 kts | 263° |
| 2026-05-04 16:50 | 39.84262 | -105.92788 | 27765 ft | 395 kts | 264° |
| 2026-05-04 16:51 | 39.83618 | -105.99929 | 28937 ft | 399 kts | 264° |
| 2026-05-04 16:51 | 39.83301 | -106.03518 | 29579 ft | 399 kts | 264° |
| 2026-05-04 16:51 | 39.82666 | -106.10698 | 30709 ft | 400 kts | 264° |
| 2026-05-04 16:52 | 39.82024 | -106.17898 | 31667 ft | 401 kts | 265° |
| 2026-05-04 16:52 | 39.81700 | -106.21497 | 32153 ft | 401 kts | 265° |
| 2026-05-04 16:53 | 39.81050 | -106.28711 | 32958 ft | 402 kts | 265° |
| 2026-05-04 16:53 | 39.80067 | -106.39520 | 34187 ft | 398 kts | 265° |
| 2026-05-04 16:54 | 39.79744 | -106.43052 | 34523 ft | 398 kts | 265° |
| 2026-05-04 16:55 | 39.78396 | -106.57297 | 35954 ft | 396 kts | 264° |
| 2026-05-04 16:55 | 39.77619 | -106.64390 | 36564 ft | 396 kts | 263° |
| 2026-05-04 16:56 | 39.76835 | -106.71469 | 37134 ft | 396 kts | 263° |
| 2026-05-04 16:56 | 39.75660 | -106.82115 | 37930 ft | 396 kts | 263° |
| 2026-05-04 16:57 | 39.75269 | -106.85658 | 38214 ft | 396 kts | 263° |
| 2026-05-04 16:57 | 39.74489 | -106.92692 | 38859 ft | 395 kts | 263° |
| 2026-05-04 16:58 | 39.73306 | -107.03309 | 39363 ft | 396 kts | 263° |
| 2026-05-04 16:58 | 39.72908 | -107.06857 | 39474 ft | 397 kts | 263° |
| 2026-05-04 16:59 | 39.72108 | -107.13951 | 39832 ft | 396 kts | 263° |
| 2026-05-04 17:00 | 39.70490 | -107.28193 | 39979 ft | 399 kts | 263° |
| 2026-05-04 17:01 | 39.68464 | -107.45798 | 39962 ft | 392 kts | 263° |
| 2026-05-04 17:02 | 39.66807 | -107.60017 | 39956 ft | 401 kts | 262° |
| 2026-05-04 17:03 | 39.65550 | -107.70720 | 39978 ft | 403 kts | 262° |
| 2026-05-04 17:03 | 39.64269 | -107.81516 | 39875 ft | 402 kts | 262° |
| 2026-05-04 17:04 | 39.62560 | -107.95793 | 39894 ft | 402 kts | 262° |
| 2026-05-04 17:05 | 39.60826 | -108.10128 | 39891 ft | 402 kts | 262° |
| 2026-05-04 17:06 | 39.59515 | -108.20880 | 39882 ft | 402 kts | 262° |
| 2026-05-04 17:07 | 39.58343 | -108.30405 | 39881 ft | 401 kts | 262° |
| 2026-05-04 17:07 | 39.57314 | -108.38717 | 39881 ft | 402 kts | 262° |
| 2026-05-04 17:08 | 39.55977 | -108.49449 | 39873 ft | 401 kts | 261° |
| 2026-05-04 17:09 | 39.55085 | -108.56576 | 39871 ft | 400 kts | 261° |
| 2026-05-04 17:09 | 39.54189 | -108.63688 | 39838 ft | 399 kts | 261° |
| 2026-05-04 17:10 | 39.51942 | -108.81381 | 39846 ft | 399 kts | 261° |
| 2026-05-04 17:11 | 39.51031 | -108.88485 | 39835 ft | 400 kts | 261° |
| 2026-05-04 17:12 | 39.49664 | -108.99092 | 39834 ft | 399 kts | 261° |
| 2026-05-04 17:13 | 39.47360 | -109.16774 | 39832 ft | 398 kts | 260° |
| 2026-05-04 17:14 | 39.45500 | -109.30904 | 39852 ft | 398 kts | 260° |
| 2026-05-04 17:15 | 39.44093 | -109.41499 | 39850 ft | 398 kts | 260° |
| 2026-05-04 17:16 | 39.42204 | -109.55608 | 39857 ft | 397 kts | 260° |
| 2026-05-04 17:17 | 39.40299 | -109.69692 | 39858 ft | 397 kts | 260° |
| 2026-05-04 17:18 | 39.38384 | -109.83731 | 39854 ft | 398 kts | 260° |
| 2026-05-04 17:19 | 39.36444 | -109.97837 | 39851 ft | 400 kts | 260° |
| 2026-05-04 17:20 | 39.34554 | -110.11957 | 39844 ft | 400 kts | 260° |
| 2026-05-04 17:20 | 39.33127 | -110.22568 | 39839 ft | 399 kts | 259° |
| 2026-05-04 17:21 | 39.31198 | -110.36751 | 39844 ft | 404 kts | 260° |
| 2026-05-04 17:22 | 39.30216 | -110.43916 | 39837 ft | 407 kts | 259° |
| 2026-05-04 17:23 | 39.28228 | -110.58332 | 39833 ft | 409 kts | 259° |
| 2026-05-04 17:24 | 39.26718 | -110.69194 | 39834 ft | 410 kts | 259° |
| 2026-05-04 17:25 | 39.24695 | -110.83625 | 39825 ft | 409 kts | 259° |
| 2026-05-04 17:26 | 39.22653 | -110.98055 | 39837 ft | 408 kts | 259° |
| 2026-05-04 17:27 | 39.20085 | -111.16016 | 39846 ft | 405 kts | 259° |
| 2026-05-04 17:28 | 39.18024 | -111.30290 | 39850 ft | 405 kts | 259° |
| 2026-05-04 17:29 | 39.14905 | -111.51650 | 39846 ft | 405 kts | 259° |
| 2026-05-04 17:31 | 39.12265 | -111.69530 | 39838 ft | 407 kts | 258° |
| 2026-05-04 17:32 | 39.09598 | -111.87376 | 39820 ft | 407 kts | 258° |
| 2026-05-04 17:33 | 39.07438 | -112.01695 | 39844 ft | 407 kts | 258° |
| 2026-05-04 17:34 | 39.05268 | -112.15946 | 39906 ft | 406 kts | 258° |
| 2026-05-04 17:35 | 39.02526 | -112.33810 | 39932 ft | 408 kts | 258° |
| 2026-05-04 17:36 | 39.01418 | -112.40959 | 39932 ft | 408 kts | 258° |
| 2026-05-04 17:36 | 39.00491 | -112.46901 | 39939 ft | 408 kts | 257° |
| 2026-05-04 17:36 | 38.99742 | -112.51692 | 39792 ft | 408 kts | 257° |
| 2026-05-04 17:37 | 38.99372 | -112.54054 | 39787 ft | 408 kts | 257° |
| 2026-05-04 17:37 | 38.98249 | -112.61203 | 39781 ft | 408 kts | 257° |
| 2026-05-04 17:38 | 38.97121 | -112.68356 | 39780 ft | 408 kts | 257° |
| 2026-05-04 17:38 | 38.95989 | -112.75508 | 39771 ft | 408 kts | 257° |
| 2026-05-04 17:39 | 38.94281 | -112.86242 | 39763 ft | 409 kts | 257° |
| 2026-05-04 17:39 | 38.93140 | -112.93371 | 39768 ft | 410 kts | 257° |
| 2026-05-04 17:40 | 38.91988 | -113.00543 | 39766 ft | 411 kts | 257° |
| 2026-05-04 17:40 | 38.90825 | -113.07752 | 39766 ft | 412 kts | 257° |
| 2026-05-04 17:41 | 38.89660 | -113.14949 | 39767 ft | 412 kts | 257° |
| 2026-05-04 17:41 | 38.88487 | -113.22161 | 39777 ft | 413 kts | 257° |
| 2026-05-04 17:42 | 38.87307 | -113.29386 | 39777 ft | 413 kts | 257° |
| 2026-05-04 17:42 | 38.86124 | -113.36603 | 39786 ft | 413 kts | 257° |
| 2026-05-04 17:43 | 38.84936 | -113.43823 | 39770 ft | 414 kts | 257° |
| 2026-05-04 17:43 | 38.83749 | -113.51007 | 39774 ft | 414 kts | 256° |
| 2026-05-04 17:44 | 38.82549 | -113.58232 | 39774 ft | 414 kts | 256° |
| 2026-05-04 17:44 | 38.81344 | -113.65462 | 39770 ft | 415 kts | 256° |
| 2026-05-04 17:45 | 38.80132 | -113.72707 | 39769 ft | 415 kts | 256° |
| 2026-05-04 17:45 | 38.78917 | -113.79953 | 39766 ft | 415 kts | 256° |
| 2026-05-04 17:46 | 38.77702 | -113.87158 | 39766 ft | 416 kts | 256° |
| 2026-05-04 17:46 | 38.76475 | -113.94414 | 39772 ft | 417 kts | 256° |
| 2026-05-04 17:47 | 38.75243 | -114.01683 | 39777 ft | 417 kts | 256° |
| 2026-05-04 17:47 | 38.74009 | -114.08943 | 39787 ft | 417 kts | 256° |
| 2026-05-04 17:48 | 38.72767 | -114.16215 | 39787 ft | 418 kts | 256° |
| 2026-05-04 17:48 | 38.71519 | -114.23491 | 39784 ft | 419 kts | 256° |
| 2026-05-04 17:49 | 38.70272 | -114.30737 | 39792 ft | 419 kts | 256° |
| 2026-05-04 17:49 | 38.69013 | -114.38023 | 39790 ft | 419 kts | 256° |
| 2026-05-04 17:50 | 38.67747 | -114.45323 | 39791 ft | 420 kts | 255° |
| 2026-05-04 17:50 | 38.66475 | -114.52623 | 39798 ft | 420 kts | 255° |
| 2026-05-04 17:51 | 38.65201 | -114.59912 | 39790 ft | 421 kts | 255° |
| 2026-05-04 17:51 | 38.63919 | -114.67211 | 39786 ft | 421 kts | 255° |
| 2026-05-04 17:52 | 38.62635 | -114.74501 | 39790 ft | 420 kts | 255° |
| 2026-05-04 17:52 | 38.61343 | -114.81804 | 39772 ft | 421 kts | 255° |
| 2026-05-04 17:53 | 38.60047 | -114.89103 | 39788 ft | 421 kts | 255° |
| 2026-05-04 17:53 | 38.58752 | -114.96366 | 39783 ft | 422 kts | 255° |
| 2026-05-04 17:54 | 38.57445 | -115.03679 | 39777 ft | 423 kts | 255° |
| 2026-05-04 17:54 | 38.56126 | -115.11020 | 39772 ft | 423 kts | 255° |
| 2026-05-04 17:55 | 38.54796 | -115.18353 | 39761 ft | 423 kts | 255° |
| 2026-05-04 17:55 | 38.53462 | -115.25674 | 39766 ft | 423 kts | 255° |
| 2026-05-04 17:56 | 38.52125 | -115.32991 | 39767 ft | 423 kts | 255° |
| 2026-05-04 17:56 | 38.50784 | -115.40306 | 39747 ft | 423 kts | 255° |
| 2026-05-04 17:57 | 38.49445 | -115.47580 | 39752 ft | 423 kts | 254° |
| 2026-05-04 17:57 | 38.48095 | -115.54892 | 39751 ft | 423 kts | 255° |
| 2026-05-04 17:58 | 38.46740 | -115.62205 | 39750 ft | 423 kts | 254° |
| 2026-05-04 17:58 | 38.45379 | -115.69520 | 39753 ft | 423 kts | 254° |
| 2026-05-04 17:59 | 38.44013 | -115.76835 | 39753 ft | 424 kts | 254° |
| 2026-05-04 18:00 | 38.41956 | -115.87798 | 39757 ft | 424 kts | 254° |
| 2026-05-04 18:00 | 38.40579 | -115.95105 | 39770 ft | 424 kts | 254° |
| 2026-05-04 18:01 | 38.39195 | -116.02421 | 39763 ft | 424 kts | 253° |
| 2026-05-04 18:01 | 38.37806 | -116.09732 | 39753 ft | 424 kts | 253° |
| 2026-05-04 18:02 | 38.35718 | -116.20691 | 39768 ft | 425 kts | 253° |
| 2026-05-04 18:02 | 38.34318 | -116.28002 | 39773 ft | 425 kts | 253° |
| 2026-05-04 18:03 | 38.32904 | -116.35277 | 39769 ft | 425 kts | 252° |
| 2026-05-04 18:03 | 38.31289 | -116.42539 | 39769 ft | 427 kts | 251° |
| 2026-05-04 18:04 | 38.29619 | -116.49787 | 39775 ft | 426 kts | 251° |
| 2026-05-04 18:05 | 38.27140 | -116.60673 | 39783 ft | 427 kts | 251° |
| 2026-05-04 18:05 | 38.25506 | -116.67887 | 39784 ft | 426 kts | 251° |
| 2026-05-04 18:06 | 38.23035 | -116.78756 | 39784 ft | 426 kts | 251° |
| 2026-05-04 18:06 | 38.21384 | -116.85988 | 39789 ft | 426 kts | 251° |
| 2026-05-04 18:07 | 38.19729 | -116.93215 | 39793 ft | 425 kts | 251° |
| 2026-05-04 18:07 | 38.18068 | -117.00443 | 39786 ft | 425 kts | 250° |
| 2026-05-04 18:08 | 38.16405 | -117.07658 | 39788 ft | 425 kts | 250° |
| 2026-05-04 18:08 | 38.14739 | -117.14864 | 39780 ft | 425 kts | 250° |
| 2026-05-04 18:09 | 38.11409 | -117.29214 | 39781 ft | 425 kts | 250° |
| 2026-05-04 18:10 | 38.09743 | -117.36432 | 39775 ft | 426 kts | 250° |
| 2026-05-04 18:10 | 38.08075 | -117.43654 | 39771 ft | 426 kts | 250° |
| 2026-05-04 18:11 | 38.06404 | -117.50862 | 39780 ft | 426 kts | 250° |
| 2026-05-04 18:11 | 38.04727 | -117.58069 | 39782 ft | 426 kts | 250° |
| 2026-05-04 18:12 | 38.03041 | -117.65297 | 39775 ft | 427 kts | 250° |
| 2026-05-04 18:12 | 38.01352 | -117.72518 | 39775 ft | 428 kts | 250° |
| 2026-05-04 18:13 | 37.99950 | -117.79869 | 39775 ft | 432 kts | 258° |
| 2026-05-04 18:14 | 37.98810 | -117.91183 | 39781 ft | 433 kts | 258° |
| 2026-05-04 18:14 | 37.98030 | -117.98751 | 39775 ft | 434 kts | 258° |
| 2026-05-04 18:15 | 37.96430 | -118.13915 | 39795 ft | 434 kts | 258° |
| 2026-05-04 18:16 | 37.95617 | -118.21516 | 39794 ft | 435 kts | 258° |
| 2026-05-04 18:16 | 37.94801 | -118.29112 | 39793 ft | 435 kts | 258° |
| 2026-05-04 18:17 | 37.93568 | -118.40515 | 39801 ft | 435 kts | 258° |
| 2026-05-04 18:18 | 37.92327 | -118.51875 | 39829 ft | 436 kts | 258° |
| 2026-05-04 18:18 | 37.91489 | -118.59488 | 39818 ft | 436 kts | 258° |
| 2026-05-04 18:19 | 37.90225 | -118.70902 | 39866 ft | 436 kts | 258° |
| 2026-05-04 18:19 | 37.89373 | -118.78521 | 39890 ft | 437 kts | 257° |
| 2026-05-04 18:20 | 37.88508 | -118.86147 | 39890 ft | 437 kts | 257° |
| 2026-05-04 18:20 | 37.87638 | -118.93756 | 39900 ft | 437 kts | 257° |
| 2026-05-04 18:21 | 37.86769 | -119.01330 | 39897 ft | 438 kts | 257° |
| 2026-05-04 18:21 | 37.85887 | -119.08967 | 39874 ft | 439 kts | 257° |
| 2026-05-04 18:22 | 37.85000 | -119.16614 | 39902 ft | 439 kts | 257° |
| 2026-05-04 18:22 | 37.84258 | -119.22969 | 39908 ft | 437 kts | 257° |
| 2026-05-04 18:23 | 37.83365 | -119.30590 | 39938 ft | 440 kts | 257° |
| 2026-05-04 18:23 | 37.82461 | -119.38252 | 39810 ft | 442 kts | 257° |
| 2026-05-04 18:24 | 37.82006 | -119.42098 | 39464 ft | 442 kts | 257° |
| 2026-05-04 18:24 | 37.81553 | -119.45926 | 39045 ft | 437 kts | 257° |
| 2026-05-04 18:24 | 37.81104 | -119.49708 | 38637 ft | 433 kts | 257° |
| 2026-05-04 18:24 | 37.80658 | -119.53450 | 38122 ft | 429 kts | 257° |
| 2026-05-04 18:25 | 37.80212 | -119.57170 | 37664 ft | 429 kts | 257° |
| 2026-05-04 18:25 | 37.79749 | -119.60985 | 37233 ft | 447 kts | 257° |
| 2026-05-04 18:25 | 37.79268 | -119.64934 | 36766 ft | 462 kts | 257° |
| 2026-05-04 18:25 | 37.78774 | -119.68992 | 36454 ft | 469 kts | 257° |
| 2026-05-04 18:26 | 37.78284 | -119.73045 | 35937 ft | 463 kts | 258° |
| 2026-05-04 18:26 | 37.77802 | -119.77042 | 35389 ft | 456 kts | 258° |
| 2026-05-04 18:26 | 37.77329 | -119.80972 | 34882 ft | 449 kts | 258° |
| 2026-05-04 18:26 | 37.76858 | -119.84851 | 34389 ft | 443 kts | 258° |
| 2026-05-04 18:27 | 37.76393 | -119.88643 | 33877 ft | 440 kts | 259° |
| 2026-05-04 18:27 | 37.75925 | -119.92444 | 33339 ft | 437 kts | 259° |
| 2026-05-04 18:27 | 37.75459 | -119.96219 | 32864 ft | 433 kts | 259° |
| 2026-05-04 18:27 | 37.74994 | -119.99971 | 32371 ft | 430 kts | 259° |
| 2026-05-04 18:28 | 37.74533 | -120.03690 | 31916 ft | 427 kts | 260° |
| 2026-05-04 18:28 | 37.74074 | -120.07385 | 31467 ft | 424 kts | 260° |
| 2026-05-04 18:28 | 37.73618 | -120.11048 | 31020 ft | 422 kts | 260° |
| 2026-05-04 18:28 | 37.73161 | -120.14704 | 30574 ft | 421 kts | 261° |
| 2026-05-04 18:29 | 37.72704 | -120.18351 | 30121 ft | 420 kts | 261° |
| 2026-05-04 18:29 | 37.72248 | -120.21989 | 29578 ft | 419 kts | 261° |
| 2026-05-04 18:29 | 37.71791 | -120.25619 | 29046 ft | 417 kts | 261° |
| 2026-05-04 18:29 | 37.71337 | -120.29224 | 28542 ft | 414 kts | 261° |
| 2026-05-04 18:30 | 37.70436 | -120.36353 | 27546 ft | 412 kts | 261° |
| 2026-05-04 18:30 | 37.69983 | -120.39916 | 27049 ft | 410 kts | 261° |
| 2026-05-04 18:30 | 37.69545 | -120.43477 | 26572 ft | 409 kts | 262° |
| 2026-05-04 18:31 | 37.69133 | -120.47019 | 26107 ft | 407 kts | 263° |
| 2026-05-04 18:31 | 37.68728 | -120.50549 | 25632 ft | 405 kts | 263° |
| 2026-05-04 18:31 | 37.68324 | -120.54070 | 25184 ft | 404 kts | 263° |
| 2026-05-04 18:31 | 37.67917 | -120.57579 | 24727 ft | 404 kts | 263° |
| 2026-05-04 18:32 | 37.67507 | -120.61091 | 24264 ft | 403 kts | 263° |
| 2026-05-04 18:32 | 37.67096 | -120.64592 | 23812 ft | 403 kts | 263° |
| 2026-05-04 18:32 | 37.66684 | -120.68096 | 23289 ft | 404 kts | 263° |
| 2026-05-04 18:32 | 37.66274 | -120.71571 | 22771 ft | 403 kts | 263° |
| 2026-05-04 18:33 | 37.65860 | -120.75062 | 22296 ft | 401 kts | 263° |
| 2026-05-04 18:33 | 37.65444 | -120.78538 | 21828 ft | 400 kts | 262° |
| 2026-05-04 18:33 | 37.65027 | -120.82004 | 21364 ft | 398 kts | 262° |
| 2026-05-04 18:33 | 37.64612 | -120.85446 | 20910 ft | 396 kts | 262° |
| 2026-05-04 18:34 | 37.64198 | -120.88873 | 20466 ft | 394 kts | 262° |
| 2026-05-04 18:34 | 37.63786 | -120.92284 | 20014 ft | 393 kts | 262° |
| 2026-05-04 18:34 | 37.63373 | -120.95684 | 19579 ft | 391 kts | 262° |
| 2026-05-04 18:34 | 37.62944 | -120.99067 | 19126 ft | 390 kts | 261° |
| 2026-05-04 18:35 | 37.62494 | -121.02434 | 18688 ft | 389 kts | 261° |
| 2026-05-04 18:35 | 37.62040 | -121.05788 | 18230 ft | 388 kts | 261° |
| 2026-05-04 18:35 | 37.61592 | -121.09099 | 17726 ft | 387 kts | 260° |
| 2026-05-04 18:35 | 37.61137 | -121.12478 | 17258 ft | 385 kts | 260° |
| 2026-05-04 18:36 | 37.60691 | -121.15788 | 16801 ft | 382 kts | 261° |
| 2026-05-04 18:36 | 37.60253 | -121.19051 | 16336 ft | 380 kts | 260° |
| 2026-05-04 18:36 | 37.59816 | -121.22301 | 15869 ft | 364 kts | 260° |
| 2026-05-04 18:36 | 37.59404 | -121.25349 | 15463 ft | 347 kts | 260° |
| 2026-05-04 18:37 | 37.59014 | -121.28355 | 14975 ft | 348 kts | 261° |
| 2026-05-04 18:37 | 37.58662 | -121.31389 | 14465 ft | 350 kts | 262° |
| 2026-05-04 18:37 | 37.58320 | -121.34437 | 14043 ft | 349 kts | 262° |
| 2026-05-04 18:37 | 37.57990 | -121.37370 | 13794 ft | 334 kts | 261° |
| 2026-05-04 18:38 | 37.57664 | -121.40237 | 13586 ft | 326 kts | 261° |
| 2026-05-04 18:38 | 37.57344 | -121.43027 | 13411 ft | 317 kts | 261° |
| 2026-05-04 18:38 | 37.57030 | -121.45754 | 13133 ft | 312 kts | 261° |
| 2026-05-04 18:38 | 37.56717 | -121.48456 | 12786 ft | 310 kts | 261° |
| 2026-05-04 18:39 | 37.56406 | -121.51139 | 12425 ft | 308 kts | 261° |
| 2026-05-04 18:39 | 37.56098 | -121.53780 | 12090 ft | 308 kts | 261° |
| 2026-05-04 18:39 | 37.55784 | -121.56473 | 11768 ft | 306 kts | 261° |
| 2026-05-04 18:39 | 37.55478 | -121.59082 | 11446 ft | 304 kts | 261° |
| 2026-05-04 18:40 | 37.55169 | -121.61713 | 11140 ft | 301 kts | 261° |
| 2026-05-04 18:40 | 37.54761 | -121.64279 | 10849 ft | 297 kts | 253° |
| 2026-05-04 18:40 | 37.54175 | -121.66690 | 10589 ft | 284 kts | 251° |
| 2026-05-04 18:40 | 37.53570 | -121.69025 | 10401 ft | 277 kts | 250° |
| 2026-05-04 18:41 | 37.52990 | -121.71325 | 10212 ft | 272 kts | 251° |
| 2026-05-04 18:41 | 37.52435 | -121.73588 | 9948 ft | 269 kts | 251° |
| 2026-05-04 18:41 | 37.51892 | -121.75838 | 9613 ft | 268 kts | 251° |
| 2026-05-04 18:41 | 37.51353 | -121.78080 | 9281 ft | 267 kts | 251° |
| 2026-05-04 18:42 | 37.50817 | -121.80313 | 9014 ft | 265 kts | 251° |
| 2026-05-04 18:42 | 37.50283 | -121.82538 | 8678 ft | 265 kts | 251° |
| 2026-05-04 18:42 | 37.49762 | -121.84711 | 8400 ft | 257 kts | 251° |
| 2026-05-04 18:42 | 37.49250 | -121.86856 | 7782 ft | 256 kts | 253° |
| 2026-05-04 18:43 | 37.49054 | -121.89075 | 7262 ft | 258 kts | 271° |
| 2026-05-04 18:43 | 37.49207 | -121.91386 | 7144 ft | 263 kts | 274° |
| 2026-05-04 18:43 | 37.49381 | -121.93680 | 6909 ft | 262 kts | 273° |
| 2026-05-04 18:43 | 37.49539 | -121.95947 | 6773 ft | 257 kts | 273° |
| 2026-05-04 18:44 | 37.49687 | -121.98186 | 6646 ft | 256 kts | 272° |
| 2026-05-04 18:44 | 37.49779 | -121.99669 | 6544 ft | 246 kts | 272° |
| 2026-05-04 18:44 | 37.49943 | -122.02467 | 5848 ft | 239 kts | 272° |
| 2026-05-04 18:44 | 37.50063 | -122.04559 | 5340 ft | 243 kts | 272° |
| 2026-05-04 18:45 | 37.50185 | -122.06671 | 5159 ft | 239 kts | 272° |
| 2026-05-04 18:45 | 37.50319 | -122.08737 | 4951 ft | 232 kts | 278° |
| 2026-05-04 18:45 | 37.50853 | -122.10665 | 4561 ft | 236 kts | 296° |
| 2026-05-04 18:45 | 37.51613 | -122.12460 | 4308 ft | 234 kts | 296° |
| 2026-05-04 18:46 | 37.52364 | -122.14276 | 4003 ft | 231 kts | 296° |
| 2026-05-04 18:46 | 37.53101 | -122.16036 | 3891 ft | 222 kts | 296° |
| 2026-05-04 18:46 | 37.53813 | -122.17732 | 3685 ft | 218 kts | 296° |
| 2026-05-04 18:46 | 37.54524 | -122.19430 | 3397 ft | 220 kts | 295° |
| 2026-05-04 18:47 | 37.55209 | -122.21057 | 3083 ft | 205 kts | 296° |
| 2026-05-04 18:47 | 37.55847 | -122.22575 | 2815 ft | 190 kts | 296° |
| 2026-05-04 18:47 | 37.56454 | -122.24023 | 2379 ft | 183 kts | 296° |
| 2026-05-04 18:47 | 37.57042 | -122.25428 | 2081 ft | 180 kts | 296° |
| 2026-05-04 18:48 | 37.57621 | -122.26799 | 2015 ft | 177 kts | 297° |
| 2026-05-04 18:48 | 37.58206 | -122.28157 | 1756 ft | 170 kts | 297° |
| 2026-05-04 18:48 | 37.58735 | -122.29412 | 1381 ft | 153 kts | 296° |
| 2026-05-04 18:48 | 37.59181 | -122.30538 | 1030 ft | 134 kts | 295° |
| 2026-05-04 18:49 | 37.59602 | -122.31542 | 783 ft | 128 kts | 296° |
| 2026-05-04 18:49 | 37.60021 | -122.32528 | 642 ft | 127 kts | 295° |
| 2026-05-04 18:49 | 37.60447 | -122.33521 | 432 ft | 132 kts | 294° |
| 2026-05-04 18:49 | 37.60861 | -122.34534 | 269 ft | 128 kts | 294° |
| 2026-05-04 18:50 | 37.61278 | -122.35528 | 115 ft | 129 kts | 295° |
| 2026-05-04 18:50 | 37.61688 | -122.36505 | 29 ft | 119 kts | 295° |
| 2026-05-04 18:50 | 37.62025 | -122.37315 | 27 ft | 87 kts | 297° |
| 2026-05-04 18:50 | 37.62253 | -122.37861 | 27 ft | 64 kts | 298° |
| 2026-05-04 18:51 | 37.62435 | -122.38289 | 26 ft | 43 kts | 298° |
| 2026-05-04 18:51 | 37.62504 | -122.38581 | 26 ft | 31 kts | 271° |
| 2026-05-04 18:51 | 37.62497 | -122.38783 | 26 ft | 16 kts | 265° |
| 2026-05-04 18:51 | 37.62436 | -122.38891 | 26 ft | 16 kts | 207° |
| 2026-05-04 18:52 | 37.62353 | -122.38944 | 26 ft | 11 kts | 207° |
| 2026-05-04 18:52 | 37.62302 | -122.38977 | 26 ft | 5 kts | 208° |
| 2026-05-04 18:52 | 37.62270 | -122.38989 | 26 ft | 2 kts | 164° |
| 2026-05-04 18:52 | 37.62265 | -122.38954 | 26 ft | 6 kts | 87° |
| 2026-05-04 18:53 | 37.62257 | -122.38905 | 26 ft | 0 kts | 112° |
| 2026-05-04 18:53 | 37.62250 | -122.38880 | 26 ft | 12 kts | 107° |
| 2026-05-04 18:53 | 37.62265 | -122.38809 | 26 ft | 7 kts | 37° |
| 2026-05-04 18:54 | 37.62296 | -122.38827 | 26 ft | 11 kts | 316° |
| 2026-05-04 18:54 | 37.62331 | -122.38909 | 26 ft | 10 kts | 284° |
| 2026-05-04 18:54 | 37.62314 | -122.38962 | 26 ft | 6 kts | 207° |
| 2026-05-04 18:54 | 37.62296 | -122.38955 | 26 ft | 0 kts | 150° |
| 2026-05-04 18:55 | 37.62294 | -122.38953 | 26 ft | 0 kts | 148° |
| 2026-05-04 18:55 | 37.62238 | -122.38949 | 26 ft | 9 kts | 202° |
| 2026-05-04 18:55 | 37.62200 | -122.38972 | 26 ft | 1 kts | 205° |
| 2026-05-04 18:56 | 37.62185 | -122.38981 | 26 ft | 3 kts | 206° |
| 2026-05-04 18:56 | 37.62168 | -122.38992 | 26 ft | 3 kts | 206° |
| 2026-05-04 18:56 | 37.62162 | -122.38995 | 26 ft | 0 kts | 206° |
| 2026-05-04 18:57 | 37.62158 | -122.38998 | 26 ft | 0 kts | 205° |